Avalon, Pennsylvania
Current Conditions -  °F | °C
As of 6:01 AM on Saturday 01 Nov 2014 (Local Time) from KPIT Reporting Station
Light Rain Light Rain  
Wind Chill: 35°   Ceiling: 700
Heat Index: 41°   Visibility: 6mi
Dew Point: 39°   Wind: 9mph
Humidity: 93%   Direction: 20°NNE
Pressure: 29.93"   Gusts: NA
Location:  40.5069°N, 80.0715°W
Report Text: KPIT 011001Z 02008KT 6SM -RA BR BKN007 OVC025 05/04 A2993 RMK AO2 P0000 T00500039
Loading
Personal Weather Stations






























Interactive Weather Map
Tropical Storm Tracking
New forecast layout! Learn more

10-Day Weather Forecast

Advertisements
Track Severe Weather on mobile